Time;durP1;ratioP1;P1;durP2;ratioP2;P2;SDS_P1;SDS_P2;PMS_P1;PMS_P2;Temp;Humidity;BMP_temperature;BMP_pressure;BME280_temperature;BME280_humidity;BME280_pressure;Samples;Min_cycle;Max_cycle;Signal;HPM_P1;HPM_P2
2024/04/14 00:00:05;;;;;;;3.45;1.10;;;;;;;-145.69;43.93;51963.19;5488319;26;20227;-79
2024/04/14 00:02:33;;;;;;;2.28;1.13;;;;;;;-145.69;40.89;51975.06;5488445;26;20701;-79
2024/04/14 00:04:59;;;;;;;3.95;0.98;;;;;;;-145.69;40.98;51969.13;5494253;26;20599;-79
2024/04/14 00:07:27;;;;;;;2.03;1.10;;;;;;;-145.69;39.98;51961.19;5525192;26;20233;-79
2024/04/14 00:09:55;;;;;;;2.35;1.00;;;;;;;-145.69;40.50;51965.16;5525154;26;20222;-80
2024/04/14 00:12:26;;;;;;;2.50;1.00;;;;;;;-145.69;39.84;51973.06;5524949;26;20336;-80
2024/04/14 00:14:52;;;;;;;1.98;1.20;;;;;;;-145.69;39.98;51965.16;5524612;26;20255;-80
2024/04/14 00:17:27;;;;;;;2.35;0.93;;;;;;;-145.69;39.45;51965.16;5524363;26;20225;-81
2024/04/14 00:19:55;;;;;;;4.85;1.27;;;;;;;-145.69;41.40;51955.25;5525169;26;20366;-80
2024/04/14 00:22:24;;;;;;;3.28;1.02;;;;;;;-145.69;39.91;51984.97;5524772;26;20271;-80
2024/04/14 00:24:50;;;;;;;2.97;1.00;;;;;;;-145.69;39.14;51961.19;5524745;26;20233;-79
2024/04/14 00:27:19;;;;;;;1.20;0.80;;;;;;;-145.69;41.36;51961.19;5523894;26;20226;-79
2024/04/14 00:29:47;;;;;;;2.10;1.10;;;;;;;-145.69;39.78;51979.03;5528468;26;20225;-79
2024/04/14 00:32:16;;;;;;;3.05;1.20;;;;;;;-145.69;40.60;51957.25;5528336;26;20226;-78
2024/04/14 00:34:41;;;;;;;1.90;1.00;;;;;;;-145.69;39.75;51949.31;5528300;26;20411;-79
2024/04/14 00:37:10;;;;;;;1.02;0.90;;;;;;;-145.69;39.39;51959.22;5504060;25;20226;-78
2024/04/14 00:39:35;;;;;;;1.63;1.10;;;;;;;-145.69;38.74;51957.25;5491582;26;20701;-79
2024/04/14 00:42:05;;;;;;;1.67;1.13;;;;;;;-145.69;38.54;51957.25;5491258;26;20295;-79
2024/04/14 00:44:31;;;;;;;1.70;0.90;;;;;;;-145.69;38.01;51961.19;5491209;26;20244;-78
2024/04/14 00:47:01;;;;;;;1.58;1.08;;;;;;;-145.69;38.34;51984.97;5523167;26;20241;-79
2024/04/14 00:49:28;;;;;;;1.92;0.90;;;;;;;-145.69;38.55;51977.03;5528647;26;20222;-79
2024/04/14 00:52:05;;;;;;;2.08;1.25;;;;;;;-145.69;38.14;51947.34;5527208;26;20644;-80
2024/04/14 00:54:32;;;;;;;1.17;0.98;;;;;;;-145.69;38.36;51955.25;5528111;26;20233;-79
2024/04/14 00:57:01;;;;;;;3.10;1.00;;;;;;;-145.69;37.90;51963.19;5527480;26;20812;-80
2024/04/14 00:59:27;;;;;;;2.97;1.08;;;;;;;-145.69;37.83;51959.22;5528347;26;20339;-80
2024/04/14 01:01:55;;;;;;;1.83;0.88;;;;;;;-145.69;37.54;51949.31;5527579;26;20251;-80
2024/04/14 01:04:24;;;;;;;1.75;1.00;;;;;;;-145.69;37.77;51941.41;5528109;26;20225;-79
2024/04/14 01:06:52;;;;;;;1.98;1.17;;;;;;;-145.69;38.27;51933.47;5526405;26;20230;-79
2024/04/14 01:09:18;;;;;;;1.40;0.90;;;;;;;-145.69;38.78;51945.34;5526685;26;20252;-79
2024/04/14 01:11:49;;;;;;;1.42;0.98;;;;;;;-145.69;38.59;51963.19;5527171;26;20289;-80
2024/04/14 01:14:16;;;;;;;1.77;1.00;;;;;;;-145.69;38.23;51953.28;5525533;26;20364;-79
2024/04/14 01:16:44;;;;;;;4.13;1.20;;;;;;;-145.69;38.45;51947.34;5527870;26;20229;-79
2024/04/14 01:19:10;;;;;;;1.55;0.90;;;;;;;-145.69;38.21;51959.22;5527290;26;20217;-80
2024/04/14 01:21:43;;;;;;;3.40;1.10;;;;;;;-145.69;38.96;51935.47;5527502;26;20553;-79
2024/04/14 01:24:09;;;;;;;3.13;1.30;;;;;;;-145.69;40.04;51971.09;5527770;26;20279;-79
2024/04/14 01:26:39;;;;;;;2.90;1.20;;;;;;;-145.69;39.67;51943.38;5527659;26;20221;-79
2024/04/14 01:29:08;;;;;;;1.15;1.00;;;;;;;-145.69;39.39;51953.28;5526544;26;20297;-79
2024/04/14 01:31:36;;;;;;;1.50;0.68;;;;;;;-145.69;39.26;51955.25;5527171;26;20253;-81
2024/04/14 01:34:02;;;;;;;1.85;0.93;;;;;;;-145.69;39.43;51955.25;5527735;26;20222;-80
2024/04/14 01:36:30;;;;;;;4.32;1.60;;;;;;;-145.69;38.96;51975.06;5526703;26;20820;-81
2024/04/14 01:38:58;;;;;;;1.13;1.00;;;;;;;-145.69;39.44;51963.19;5527379;26;20268;-80
2024/04/14 01:41:26;;;;;;;1.60;1.02;;;;;;;-145.69;39.92;51961.19;5524947;26;20233;-80
2024/04/14 01:43:54;;;;;;;2.50;1.10;;;;;;;-145.69;39.77;51977.03;5527102;26;20804;-80
2024/04/14 01:46:22;;;;;;;3.55;1.75;;;;;;;-145.69;38.72;51949.31;5526981;26;20648;-80
2024/04/14 01:48:48;;;;;;;4.60;1.30;;;;;;;-145.69;39.21;51973.06;5526611;26;20256;-80
2024/04/14 01:51:16;;;;;;;1.58;1.10;;;;;;;-145.69;38.92;51986.94;5527320;26;20233;-80
2024/04/14 01:53:44;;;;;;;1.58;0.93;;;;;;;-145.69;39.03;51982.97;5527361;26;20222;-80
2024/04/14 01:56:15;;;;;;;2.85;1.20;;;;;;;-145.69;39.05;51937.44;5527391;26;20276;-80
2024/04/14 01:58:42;;;;;;;2.55;0.95;;;;;;;-145.69;38.90;51986.94;5527014;26;20272;-79
2024/04/14 02:01:13;;;;;;;2.08;1.00;;;;;;;-145.69;38.87;51959.22;5526674;26;20233;-80
2024/04/14 02:03:41;;;;;;;2.78;1.00;;;;;;;-145.69;39.15;51959.22;5526547;26;20221;-79
2024/04/14 02:06:10;;;;;;;1.38;1.00;;;;;;;-145.69;39.17;51981.00;5527271;26;20260;-80
2024/04/14 02:08:38;;;;;;;1.27;0.93;;;;;;;-145.69;39.21;51963.19;5526981;26;20593;-79
2024/04/14 02:11:06;;;;;;;1.95;1.17;;;;;;;-145.69;39.21;51945.34;5526796;26;20225;-80
2024/04/14 02:13:32;;;;;;;2.22;1.00;;;;;;;-145.69;39.21;51992.88;5527416;26;20344;-79
2024/04/14 02:16:00;;;;;;;2.42;1.00;;;;;;;-145.69;39.28;51949.31;5526771;26;20252;-79
2024/04/14 02:18:28;;;;;;;2.22;1.00;;;;;;;-145.69;39.88;51953.28;5526370;26;20708;-79
2024/04/14 02:20:57;;;;;;;2.65;0.98;;;;;;;-145.69;40.32;51963.19;5526430;26;20230;-79
2024/04/14 02:23:23;;;;;;;4.80;1.13;;;;;;;-145.69;39.84;51981.00;5526297;26;20731;-79
2024/04/14 02:25:58;;;;;;;1.47;0.80;;;;;;;-145.69;39.60;51975.06;5526793;26;20245;-79
2024/04/14 02:28:24;;;;;;;1.30;1.00;;;;;;;-145.69;39.73;51967.13;5526029;26;20309;-79
2024/04/14 02:30:52;;;;;;;1.65;1.10;;;;;;;-145.69;40.25;51996.84;5525894;26;20241;-79
2024/04/14 02:33:21;;;;;;;3.25;1.02;;;;;;;-145.69;40.47;51998.81;5526504;26;20259;-78
2024/04/14 02:36:00;;;;;;;1.55;1.00;;;;;;;-145.69;40.54;51945.34;5526399;26;20324;-79
2024/04/14 02:38:26;;;;;;;7.30;1.60;;;;;;;-145.69;40.80;51963.19;5526301;26;20225;-79
2024/04/14 02:40:58;;;;;;;1.23;1.02;;;;;;;-145.69;40.50;51973.06;5522969;25;21060;-80
2024/04/14 02:43:24;;;;;;;1.17;0.93;;;;;;;-145.69;41.08;51969.13;5491057;26;20230;-80
2024/04/14 02:45:52;;;;;;;0.90;0.90;;;;;;;-145.69;41.21;51969.13;5489698;26;20226;-80
2024/04/14 02:48:18;;;;;;;0.80;0.80;;;;;;;-145.69;41.26;51990.91;5511907;26;20225;-80
2024/04/14 02:50:46;;;;;;;2.50;0.80;;;;;;;-145.69;41.75;52000.81;5525472;26;20317;-79
2024/04/14 02:53:16;;;;;;;4.85;1.08;;;;;;;-145.69;41.71;51973.06;5526016;26;20255;-79
2024/04/14 02:55:44;;;;;;;1.38;1.08;;;;;;;-145.69;42.21;51953.28;5526094;26;20653;-80
2024/04/14 02:58:10;;;;;;;1.73;0.80;;;;;;;-145.69;42.56;51919.63;5526241;26;20233;-80
2024/04/14 03:00:39;;;;;;;1.93;0.90;;;;;;;-145.69;43.41;51973.06;5526402;26;20225;-79
2024/04/14 03:03:05;;;;;;;1.20;1.10;;;;;;;-145.69;43.56;51981.00;5525170;26;20264;-80
2024/04/14 03:05:33;;;;;;;2.50;1.10;;;;;;;-145.69;43.71;51949.31;5526564;26;20225;-80
2024/04/14 03:07:58;;;;;;;1.90;1.30;;;;;;;-145.69;44.07;51961.19;5525977;26;20232;-80
2024/04/14 03:10:29;;;;;;;3.93;1.00;;;;;;;-145.69;44.40;51951.28;5526121;26;20668;-79
2024/04/14 03:12:55;;;;;;;6.37;1.30;;;;;;;-145.69;44.32;51981.00;5525665;26;20252;-79
2024/04/14 03:15:23;;;;;;;1.50;1.20;;;;;;;-145.69;45.08;51988.91;5526460;26;20736;-79
2024/04/14 03:17:48;;;;;;;1.57;1.30;;;;;;;-145.69;45.54;51961.19;5525447;26;20776;-79
2024/04/14 03:20:16;;;;;;;1.63;0.75;;;;;;;-145.69;45.36;51965.16;5525962;26;20225;-79
2024/04/14 03:22:42;;;;;;;2.30;1.10;;;;;;;-145.69;45.24;52016.66;5525177;26;20553;-79
2024/04/14 03:25:10;;;;;;;1.13;1.03;;;;;;;-145.69;45.02;52000.81;5525197;26;20322;-78
2024/04/14 03:27:39;;;;;;;3.47;1.10;;;;;;;-145.69;44.27;51979.03;5525151;26;20222;-79
2024/04/14 03:30:08;;;;;;;1.23;1.13;;;;;;;-145.69;44.52;51963.19;5525458;26;20225;-80
2024/04/14 03:32:34;;;;;;;2.37;0.97;;;;;;;-145.69;44.67;51977.03;5525514;26;20654;-79
2024/04/14 03:35:03;;;;;;;1.00;0.88;;;;;;;-145.69;45.12;51977.03;5525552;26;20285;-80
2024/04/14 03:37:31;;;;;;;1.63;0.80;;;;;;;-145.69;44.93;52000.81;5525263;26;20225;-79
2024/04/14 03:39:59;;;;;;;1.87;0.97;;;;;;;-145.69;45.25;52004.75;5524921;26;20233;-79
2024/04/14 03:42:27;;;;;;;1.80;1.00;;;;;;;-145.69;45.74;51994.88;5525761;26;20354;-78
2024/04/14 03:44:58;;;;;;;2.20;1.07;;;;;;;-145.69;45.94;51965.16;5525562;26;20586;-78
2024/04/14 03:47:26;;;;;;;1.10;1.00;;;;;;;-145.69;46.40;51986.94;5525489;26;20222;-78
2024/04/14 03:49:51;;;;;;;1.70;1.15;;;;;;;-145.69;46.57;52024.56;5524731;26;20233;-78
2024/04/14 03:52:20;;;;;;;2.93;1.20;;;;;;;-145.69;46.44;51986.94;5525347;26;20341;-79
2024/04/14 03:54:45;;;;;;;1.33;0.80;;;;;;;-145.69;46.64;51984.97;5525610;26;20347;-79
2024/04/14 03:57:13;;;;;;;1.90;1.00;;;;;;;-145.69;46.86;51994.88;5524494;26;20229;-79
2024/04/14 03:59:40;;;;;;;1.55;1.00;;;;;;;-145.69;47.03;51996.84;5525065;26;20229;-79
2024/04/14 04:02:11;;;;;;;1.20;1.00;;;;;;;-145.69;47.53;51977.03;5524493;26;20592;-79
2024/04/14 04:04:37;;;;;;;1.13;1.03;;;;;;;-145.69;47.73;52000.81;5524529;26;20221;-79
2024/04/14 04:07:05;;;;;;;1.50;1.10;;;;;;;-145.69;47.82;51977.03;5524980;26;20225;-78
2024/04/14 04:09:31;;;;;;;3.73;0.90;;;;;;;-145.69;47.96;51996.84;5525201;26;20276;-79
2024/04/14 04:11:59;;;;;;;1.43;1.10;;;;;;;-145.69;48.21;51965.16;5525023;26;20688;-79
2024/04/14 04:14:25;;;;;;;3.80;1.10;;;;;;;-145.69;48.31;52024.56;5524412;26;20222;-80
2024/04/14 04:16:53;;;;;;;5.23;1.27;;;;;;;-145.69;48.54;51996.84;5524262;26;20217;-79
2024/04/14 04:19:21;;;;;;;1.57;1.13;;;;;;;-145.69;48.39;51981.00;5524808;26;20327;-79
2024/04/14 04:21:49;;;;;;;1.80;1.10;;;;;;;-145.69;48.92;51973.06;5524988;26;20260;-80
2024/04/14 04:24:15;;;;;;;2.00;1.10;;;;;;;-145.69;48.37;52020.59;5523841;26;20289;-79
2024/04/14 04:26:43;;;;;;;1.80;1.17;;;;;;;-145.69;48.31;51986.94;5525023;26;20290;-79
2024/04/14 04:29:08;;;;;;;2.33;0.93;;;;;;;-145.69;48.72;52014.66;5524422;26;20225;-79
2024/04/14 04:31:37;;;;;;;1.93;0.90;;;;;;;-145.69;48.67;52012.69;5524637;26;20225;-79
2024/04/14 04:34:02;;;;;;;2.20;1.27;;;;;;;-145.69;48.91;52004.75;5524515;26;20218;-79
2024/04/14 04:36:33;;;;;;;3.33;1.10;;;;;;;-145.69;48.75;51992.88;5523682;26;20288;-79
2024/04/14 04:39:02;;;;;;;1.50;1.20;;;;;;;-145.69;48.71;51998.81;5524288;26;20230;-79
2024/04/14 04:41:30;;;;;;;3.47;1.10;;;;;;;-145.69;49.01;52016.66;5524225;26;20260;-79
2024/04/14 04:43:56;;;;;;;1.40;1.07;;;;;;;-145.69;48.69;52012.69;5524709;26;20540;-79
2024/04/14 04:46:24;;;;;;;1.53;1.23;;;;;;;-145.69;48.95;52004.75;5524553;26;20264;-78
2024/04/14 04:48:51;;;;;;;2.93;1.30;;;;;;;-145.69;49.24;52016.66;5515286;25;20757;-79
2024/04/14 04:51:20;;;;;;;3.83;1.50;;;;;;;-145.69;49.36;52024.56;5487293;26;20631;-79
2024/04/14 04:53:49;;;;;;;2.70;1.50;;;;;;;-145.69;49.38;51971.09;5486918;26;20222;-79
2024/04/14 04:56:17;;;;;;;3.30;1.23;;;;;;;-145.69;50.82;51992.88;5486973;26;20215;-81
2024/04/14 04:58:42;;;;;;;3.57;1.50;;;;;;;-145.69;50.26;52000.81;5498355;26;20351;-79
2024/04/14 05:01:12;;;;;;;2.33;1.17;;;;;;;-145.69;50.28;52002.78;5524549;26;20233;-79
2024/04/14 05:03:37;;;;;;;2.60;1.40;;;;;;;-145.69;50.36;51998.81;5523262;26;20221;-78
2024/04/14 05:06:07;;;;;;;1.90;1.30;;;;;;;-145.69;50.70;51992.88;5524262;26;20272;-78
2024/04/14 05:08:33;;;;;;;2.10;1.30;;;;;;;-145.69;50.78;51992.88;5523671;26;20225;-80
2024/04/14 05:11:04;;;;;;;1.73;1.00;;;;;;;-145.69;50.44;51969.13;5523269;26;20221;-79
2024/04/14 05:13:30;;;;;;;2.47;1.10;;;;;;;-145.69;50.82;52000.81;5522680;26;20221;-79
2024/04/14 05:15:58;;;;;;;2.03;1.17;;;;;;;-145.69;50.90;52014.66;5527835;26;20305;-78
2024/04/14 05:18:24;;;;;;;3.88;1.27;;;;;;;-145.69;51.01;52008.72;5526898;26;20233;-79
2024/04/14 05:20:52;;;;;;;1.50;1.30;;;;;;;-145.69;52.59;51984.97;5527621;26;20252;-79
2024/04/14 05:23:17;;;;;;;1.67;1.13;;;;;;;-145.69;52.36;51984.97;5527788;26;20604;-80
2024/04/14 05:25:50;;;;;;;2.07;1.10;;;;;;;-145.69;53.02;52004.75;5527483;26;20249;-79
2024/04/14 05:28:18;;;;;;;3.17;1.15;;;;;;;-145.69;53.44;51998.81;5526693;26;20279;-79
2024/04/14 05:30:48;;;;;;;3.85;1.40;;;;;;;-145.69;53.55;52012.69;5527716;26;20689;-79
2024/04/14 05:33:14;;;;;;;1.70;1.10;;;;;;;-145.69;53.90;52018.63;5527401;26;20568;-79
2024/04/14 05:35:42;;;;;;;2.08;1.40;;;;;;;-145.69;53.49;52014.66;5527508;26;20225;-79
2024/04/14 05:38:08;;;;;;;1.30;1.20;;;;;;;-145.69;53.17;51988.91;5527355;26;20222;-79
2024/04/14 05:40:37;;;;;;;2.80;1.10;;;;;;;-145.69;53.62;51949.31;5527451;26;20264;-79
2024/04/14 05:43:02;;;;;;;1.83;1.02;;;;;;;-145.69;53.38;51949.31;5527383;26;20221;-79
2024/04/14 05:45:33;;;;;;;2.03;1.30;;;;;;;-145.69;52.87;51967.13;5527182;26;20757;-79
2024/04/14 05:47:58;;;;;;;1.70;1.10;;;;;;;-145.69;52.76;52012.69;5527243;26;20598;-78
2024/04/14 05:50:27;;;;;;;2.75;1.08;;;;;;;-145.69;52.89;51984.97;5527214;26;20337;-77
2024/04/14 05:52:53;;;;;;;3.45;1.30;;;;;;;-145.69;53.22;51957.25;5526652;26;20256;-78
2024/04/14 05:55:21;;;;;;;2.33;1.20;;;;;;;-145.69;52.82;51994.88;5527595;26;20225;-80
2024/04/14 05:57:46;;;;;;;3.58;1.13;;;;;;;-145.69;53.45;51973.06;5526634;26;20218;-80
2024/04/14 06:00:15;;;;;;;2.55;1.50;;;;;;;-145.69;53.59;51977.03;5527224;26;20271;-79
2024/04/14 06:02:43;;;;;;;2.38;1.30;;;;;;;-145.69;53.00;52004.75;5526425;26;20221;-79
2024/04/14 06:05:11;;;;;;;1.90;1.27;;;;;;;-145.69;52.78;51969.13;5527094;26;20750;-78
2024/04/14 06:07:36;;;;;;;2.15;1.25;;;;;;;-145.69;52.79;52000.81;5526963;26;20401;-79
2024/04/14 06:10:05;;;;;;;2.58;1.33;;;;;;;-145.69;52.84;51965.16;5526466;26;20755;-78
2024/04/14 06:12:31;;;;;;;1.67;1.30;;;;;;;-145.69;52.74;51961.19;5526750;26;20240;-79
2024/04/14 06:14:59;;;;;;;1.52;0.90;;;;;;;-145.69;52.54;51965.16;5526860;26;20225;-78
2024/04/14 06:17:24;;;;;;;1.77;1.20;;;;;;;-145.69;52.42;51961.19;5526945;26;20616;-78
2024/04/14 06:19:55;;;;;;;6.15;1.33;;;;;;;-145.69;52.44;51933.47;5526287;26;20329;-78
2024/04/14 06:22:21;;;;;;;1.73;1.23;;;;;;;-145.69;51.51;51977.03;5526470;26;20218;-79
2024/04/14 06:24:49;;;;;;;3.30;0.90;;;;;;;-145.69;51.83;51982.97;5526302;26;20280;-79
2024/04/14 06:27:15;;;;;;;5.07;1.27;;;;;;;-145.69;51.78;51953.28;5525568;26;20260;-79
2024/04/14 06:29:43;;;;;;;7.28;1.40;;;;;;;-145.69;50.99;51967.13;5526042;26;20229;-78
2024/04/14 06:32:08;;;;;;;0.90;0.90;;;;;;;-145.69;50.01;51941.41;5526317;26;20226;-79
2024/04/14 06:34:36;;;;;;;2.53;1.05;;;;;;;-145.69;49.63;51965.16;5526483;26;20218;-79
2024/04/14 06:37:04;;;;;;;2.22;1.40;;;;;;;-145.69;47.31;51967.13;5526428;26;20260;-79
2024/04/14 06:39:33;;;;;;;1.60;1.00;;;;;;;-145.69;47.75;51945.34;5522443;25;20235;-79
2024/04/14 06:41:59;;;;;;;2.50;1.05;;;;;;;-145.69;46.28;51957.25;5489348;26;20278;-80
2024/04/14 06:44:27;;;;;;;1.80;1.00;;;;;;;-145.69;45.77;51943.38;5489339;26;20322;-79
2024/04/14 06:46:52;;;;;;;2.97;1.27;;;;;;;-145.69;45.24;51975.06;5489904;26;20226;-79
2024/04/14 06:49:20;;;;;;;2.35;1.02;;;;;;;-145.69;45.18;51961.19;5505253;26;20280;-78
2024/04/14 06:51:46;;;;;;;3.15;1.10;;;;;;;-145.69;45.32;51959.22;5526570;26;20225;-79
2024/04/14 06:54:17;;;;;;;1.48;1.00;;;;;;;-145.69;44.65;51917.63;5526565;26;20321;-79
2024/04/14 06:56:42;;;;;;;2.42;1.10;;;;;;;-145.69;44.45;51905.75;5526081;26;20677;-79
2024/04/14 06:59:10;;;;;;;3.85;1.30;;;;;;;-145.69;43.53;51925.56;5526021;26;20264;-80
2024/04/14 07:01:36;;;;;;;2.10;1.10;;;;;;;-145.69;42.03;51897.84;5526335;26;20281;-80
2024/04/14 07:04:04;;;;;;;1.42;0.90;;;;;;;-145.69;42.41;51895.84;5525967;26;20313;-78
2024/04/14 07:06:30;;;;;;;1.02;0.82;;;;;;;-145.69;42.23;51897.84;5526475;26;20264;-79
2024/04/14 07:08:58;;;;;;;2.17;1.20;;;;;;;-145.69;41.84;51897.84;5526105;26;20225;-79
2024/04/14 07:11:26;;;;;;;6.32;1.20;;;;;;;-145.69;41.53;51885.94;5526684;26;20279;-79
2024/04/14 07:13:54;;;;;;;2.25;0.98;;;;;;;-145.69;41.07;51897.84;5525441;26;20233;-79
2024/04/14 07:16:19;;;;;;;4.30;1.20;;;;;;;-145.69;41.21;51901.78;5525639;26;20276;-80
2024/04/14 07:18:50;;;;;;;2.13;1.02;;;;;;;-145.69;41.75;51883.97;5525933;26;20237;-79
2024/04/14 07:21:16;;;;;;;4.88;1.10;;;;;;;-145.69;40.81;51893.88;5525251;26;20663;-79
2024/04/14 07:23:44;;;;;;;2.22;1.00;;;;;;;-145.69;40.38;51897.84;5525485;26;20225;-79
2024/04/14 07:26:09;;;;;;;2.13;0.88;;;;;;;-145.69;40.00;51878.03;5526194;26;20553;-79
2024/04/14 07:28:41;;;;;;;2.03;1.20;;;;;;;-145.69;39.78;51868.13;5524828;26;20268;-79
2024/04/14 07:31:07;;;;;;;3.65;1.02;;;;;;;-145.69;39.48;51860.22;5525913;26;20264;-77
2024/04/14 07:33:36;;;;;;;1.65;1.00;;;;;;;-145.69;38.94;51874.06;5525552;26;20225;-79
2024/04/14 07:36:02;;;;;;;1.70;1.00;;;;;;;-145.69;39.14;51878.03;5525659;26;20404;-80
2024/04/14 07:38:30;;;;;;;3.40;1.20;;;;;;;-145.69;39.44;51862.19;5525190;26;20266;-79
2024/04/14 07:40:55;;;;;;;2.83;1.00;;;;;;;-145.69;38.80;51870.13;5488250;26;20230;-79
2024/04/14 07:43:24;;;;;;;4.13;1.00;;;;;;;-145.69;38.92;51862.19;5488954;26;20731;-78
2024/04/14 07:45:52;;;;;;;1.95;1.10;;;;;;;-145.69;38.75;51846.34;5488378;26;20231;-80
2024/04/14 07:48:20;;;;;;;2.25;1.10;;;;;;;-145.69;38.65;51852.28;5488930;26;20219;-79
2024/04/14 07:50:46;;;;;;;3.13;1.20;;;;;;;-145.69;37.81;51836.44;5522670;26;20264;-80
2024/04/14 07:53:14;;;;;;;1.33;0.95;;;;;;;-145.69;38.32;51889.91;5524421;26;20657;-78
2024/04/14 07:55:40;;;;;;;4.53;1.00;;;;;;;-145.69;38.29;51846.34;5524217;26;20221;-78
2024/04/14 07:58:08;;;;;;;3.25;1.17;;;;;;;-145.69;39.04;51852.28;5525107;26;20325;-79
2024/04/14 08:00:34;;;;;;;2.35;0.98;;;;;;;-145.69;38.33;51862.19;5525102;26;20268;-81
2024/04/14 08:03:05;;;;;;;5.47;0.82;;;;;;;-145.69;36.90;51822.59;5525447;26;20763;-80
2024/04/14 08:05:30;;;;;;;2.00;0.85;;;;;;;-145.69;38.37;51889.91;5525024;26;20221;-79
2024/04/14 08:07:58;;;;;;;2.40;1.10;;;;;;;-145.69;37.31;51870.13;5524772;26;20719;-77
2024/04/14 08:10:24;;;;;;;2.10;0.90;;;;;;;-145.69;37.45;51830.50;5525224;26;20325;-78
2024/04/14 08:12:52;;;;;;;3.13;1.00;;;;;;;-145.69;36.83;51844.38;5524552;26;20221;-79
2024/04/14 08:15:17;;;;;;;2.17;1.00;;;;;;;-145.69;37.55;51858.22;5524876;26;20285;-80
2024/04/14 08:17:45;;;;;;;1.50;0.90;;;;;;;-145.69;37.39;51838.44;5524969;26;20321;-78
2024/04/14 08:20:14;;;;;;;2.17;1.10;;;;;;;-145.69;36.79;51850.31;5524318;26;20229;-78
2024/04/14 08:22:42;;;;;;;2.58;0.90;;;;;;;-145.69;36.58;51866.16;5525032;26;20302;-78
2024/04/14 08:25:07;;;;;;;2.28;1.02;;;;;;;-145.69;37.54;51830.50;5524693;26;20233;-78
2024/04/14 08:27:35;;;;;;;2.83;1.25;;;;;;;-145.69;36.45;51834.47;5524542;26;20226;-79
2024/04/14 08:30:01;;;;;;;4.80;1.20;;;;;;;-145.69;36.73;51836.44;5524298;26;20337;-81
2024/04/14 08:32:29;;;;;;;5.93;1.00;;;;;;;-145.69;36.32;51826.56;5524245;26;20728;-80
2024/04/14 08:34:55;;;;;;;1.95;1.10;;;;;;;-145.69;36.75;51852.28;5523910;26;20260;-78
2024/04/14 08:37:26;;;;;;;1.95;1.08;;;;;;;-145.69;36.77;51842.38;5524241;26;20222;-79
2024/04/14 08:39:52;;;;;;;5.78;1.10;;;;;;;-145.69;37.68;51818.63;5520627;26;20354;-80
2024/04/14 08:42:20;;;;;;;2.05;0.90;;;;;;;-145.69;36.64;51806.75;5524441;26;20225;-79
2024/04/14 08:44:48;;;;;;;4.30;1.10;;;;;;;-145.69;36.73;51806.75;5524629;26;20719;-79
2024/04/14 08:47:19;;;;;;;2.20;1.08;;;;;;;-145.69;37.12;51834.47;5524196;26;20234;-79
2024/04/14 08:49:46;;;;;;;2.88;1.10;;;;;;;-145.69;37.01;51832.50;5525913;26;20256;-78
2024/04/14 08:52:17;;;;;;;2.10;0.82;;;;;;;-145.69;37.55;51822.59;5528519;26;20225;-79
2024/04/14 08:54:45;;;;;;;1.98;1.17;;;;;;;-145.69;37.71;51828.53;5528368;26;20592;-80
2024/04/14 08:57:15;;;;;;;1.85;1.10;;;;;;;-145.69;37.34;51792.88;5528199;26;20795;-79
2024/04/14 08:59:41;;;;;;;1.73;0.98;;;;;;;-145.69;36.65;51842.38;5527961;26;20264;-79
2024/04/14 09:02:12;;;;;;;2.30;1.05;;;;;;;-145.69;36.57;51826.56;5527971;26;20237;-79
2024/04/14 09:04:39;;;;;;;2.42;1.20;;;;;;;-145.69;36.49;51818.63;5528256;26;20221;-79
2024/04/14 09:07:08;;;;;;;1.55;1.10;;;;;;;-145.69;37.29;51790.91;5527031;26;20313;-79
2024/04/14 09:09:33;;;;;;;3.92;1.20;;;;;;;-145.69;36.13;51798.81;5527379;26;20241;-80
2024/04/14 09:12:04;;;;;;;2.25;1.00;;;;;;;-145.69;36.01;51854.28;5527979;26;20298;-78
2024/04/14 09:14:30;;;;;;;1.85;1.00;;;;;;;-145.69;36.19;51806.75;5528057;26;20692;-79
2024/04/14 09:16:58;;;;;;;2.92;0.88;;;;;;;-145.69;37.05;51814.66;5526395;26;20282;-78
2024/04/14 09:19:23;;;;;;;1.80;0.90;;;;;;;-145.69;36.08;51846.34;5527741;26;20275;-78
2024/04/14 09:21:52;;;;;;;2.08;1.27;;;;;;;-145.69;36.88;51826.56;5528188;26;20221;-79
2024/04/14 09:24:17;;;;;;;2.30;1.00;;;;;;;-145.69;35.81;51816.66;5527281;26;20230;-79
2024/04/14 09:26:45;;;;;;;2.60;0.98;;;;;;;-145.69;35.72;51826.56;5526765;26;20578;-78
2024/04/14 09:29:15;;;;;;;1.70;1.20;;;;;;;-145.69;35.40;51840.41;5527442;26;20260;-78
2024/04/14 09:31:43;;;;;;;2.38;1.20;;;;;;;-145.69;35.96;51834.47;5527210;26;20222;-78
2024/04/14 09:34:09;;;;;;;3.30;1.35;;;;;;;-145.69;35.94;51806.75;5527332;26;20221;-78
2024/04/14 09:36:39;;;;;;;4.18;1.35;;;;;;;-145.69;35.37;51822.59;5527243;26;20263;-78
2024/04/14 09:39:06;;;;;;;1.67;1.10;;;;;;;-145.69;35.24;51802.78;5527297;26;20268;-78
2024/04/14 09:41:35;;;;;;;2.88;1.13;;;;;;;-145.69;35.91;51812.69;5526997;26;20256;-79
2024/04/14 09:44:02;;;;;;;1.60;1.13;;;;;;;-145.69;36.09;51830.50;5527291;26;20221;-77
2024/04/14 09:46:35;;;;;;;2.03;1.13;;;;;;;-145.69;35.73;51818.63;5527350;26;20267;-78
2024/04/14 09:49:01;;;;;;;1.63;1.10;;;;;;;-145.69;35.76;51794.88;5527421;26;20230;-77
2024/04/14 09:51:29;;;;;;;2.90;1.05;;;;;;;-145.69;35.15;51808.72;5527387;26;20704;-78
2024/04/14 09:53:56;;;;;;;1.92;1.02;;;;;;;-145.69;35.37;51834.47;5526349;26;20221;-78
2024/04/14 09:56:24;;;;;;;2.47;1.25;;;;;;;-145.69;37.94;51800.81;5527241;26;20221;-78
2024/04/14 09:58:50;;;;;;;4.28;1.42;;;;;;;-145.69;36.57;51808.72;5527231;26;20233;-78
2024/04/14 10:01:23;;;;;;;3.97;1.40;;;;;;;-145.69;35.92;51812.69;5526125;26;20272;-78
2024/04/14 10:03:55;;;;;;;4.75;1.27;;;;;;;-145.69;35.74;51816.66;5527347;26;20229;-78
2024/04/14 10:06:26;;;;;;;4.35;1.10;;;;;;;-145.69;35.91;51810.72;5527051;26;20561;-78
2024/04/14 10:08:52;;;;;;;1.80;0.93;;;;;;;-145.69;35.96;51808.72;5526457;26;20277;-78
2024/04/14 10:11:21;;;;;;;2.70;1.20;;;;;;;-145.69;35.21;51798.81;5526993;26;20221;-79
2024/04/14 10:13:47;;;;;;;1.85;1.02;;;;;;;-145.69;34.93;51826.56;5526063;26;20354;-81
2024/04/14 10:16:15;;;;;;;2.05;0.90;;;;;;;-145.69;35.00;51808.72;5526510;26;20256;-79
2024/04/14 10:18:43;;;;;;;2.60;1.15;;;;;;;-145.69;34.65;51802.78;5526406;26;20221;-79
2024/04/14 10:21:15;;;;;;;1.88;1.00;;;;;;;-145.69;34.71;51822.59;5526954;26;20696;-79
2024/04/14 10:23:45;;;;;;;2.53;1.10;;;;;;;-145.69;34.83;51810.72;5526457;26;20328;-79
2024/04/14 10:26:17;;;;;;;2.83;1.30;;;;;;;-145.69;34.85;51783.00;5527207;26;20681;-79
2024/04/14 10:28:49;;;;;;;1.13;0.70;;;;;;;-145.69;34.83;51783.00;5526813;26;20256;-79
2024/04/14 10:31:27;;;;;;;2.00;1.02;;;;;;;-145.69;34.68;51806.75;5526719;26;20700;-78
2024/04/14 10:34:04;;;;;;;1.80;1.02;;;;;;;-145.69;34.65;51781.00;5526064;26;20221;-78
2024/04/14 10:36:35;;;;;;;3.10;1.15;;;;;;;-145.69;35.15;51802.78;5526447;26;20312;-78
2024/04/14 10:39:01;;;;;;;5.78;1.20;;;;;;;-145.69;34.12;51826.56;5526492;26;20229;-78
2024/04/14 10:41:30;;;;;;;1.35;1.08;;;;;;;-145.69;34.49;51786.94;5526555;26;20273;-78
2024/04/14 10:43:55;;;;;;;5.13;1.40;;;;;;;-145.69;32.22;51775.06;5526586;26;20221;-78
2024/04/14 10:46:23;;;;;;;3.38;1.35;;;;;;;-145.69;33.28;51777.03;5520970;25;20700;-78
2024/04/14 10:48:49;;;;;;;1.98;1.17;;;;;;;-145.69;32.98;51786.94;5526341;26;20342;-78
2024/04/14 10:51:17;;;;;;;2.90;1.38;;;;;;;-145.69;32.94;51763.19;5526108;26;20226;-80
2024/04/14 10:53:46;;;;;;;2.03;1.20;;;;;;;-145.69;32.58;51771.09;5525902;26;20816;-79
2024/04/14 10:56:14;;;;;;;3.10;1.30;;;;;;;-145.69;32.64;51808.72;5526384;26;20773;-79
2024/04/14 10:58:40;;;;;;;7.05;1.38;;;;;;;-145.69;31.42;51773.09;5525896;26;20229;-79
2024/04/14 11:01:08;;;;;;;2.30;1.25;;;;;;;-145.69;30.91;51775.06;5525958;26;20712;-79
2024/04/14 11:03:34;;;;;;;1.92;1.10;;;;;;;-145.69;30.52;51790.91;5526354;26;20679;-79
2024/04/14 11:06:03;;;;;;;3.70;1.10;;;;;;;-145.69;30.46;51755.25;5526419;26;20251;-79
2024/04/14 11:08:29;;;;;;;1.70;1.00;;;;;;;-145.69;30.24;51749.31;5526065;26;20276;-79
2024/04/14 11:11:00;;;;;;;1.83;1.20;;;;;;;-145.69;29.93;51755.25;5525508;26;20225;-78
2024/04/14 11:13:28;;;;;;;3.90;1.13;;;;;;;-145.69;29.98;51773.09;5525588;26;20222;-80
2024/04/14 11:15:58;;;;;;;5.07;1.30;;;;;;;-145.69;29.04;51796.84;5526261;26;20260;-80
2024/04/14 11:18:28;;;;;;;2.65;1.38;;;;;;;-145.69;28.92;51769.13;5526103;26;20816;-81